createdAt,value
2023-05-03T00:00:48.208Z,1025.01
2023-05-03T00:01:48.204Z,1025.01
2023-05-03T00:02:47.619Z,1025.02
2023-05-03T00:03:48.178Z,1025.02
2023-05-03T00:04:48.207Z,1025.00
2023-05-03T00:05:48.279Z,1025.02
2023-05-03T00:06:48.220Z,1024.95
2023-05-03T00:07:47.462Z,1025.01
2023-05-03T00:08:47.432Z,1024.97
2023-05-03T00:09:48.111Z,1025.00
2023-05-03T00:10:47.406Z,1024.99
2023-05-03T00:11:48.074Z,1024.98
2023-05-03T00:12:47.400Z,1025.03
2023-05-03T00:13:48.078Z,1025.02
2023-05-03T00:14:48.058Z,1025.03
2023-05-03T00:15:48.050Z,1025.03
2023-05-03T00:16:48.055Z,1024.98
2023-05-03T00:17:48.070Z,1024.98
2023-05-03T00:18:48.445Z,1025.04
2023-05-03T00:19:48.005Z,1025.03
2023-05-03T00:20:47.994Z,1024.97
2023-05-03T00:21:47.966Z,1025.03
2023-05-03T00:22:47.315Z,1025.06
2023-05-03T00:23:47.963Z,1025.04
2023-05-03T00:24:47.267Z,1025.04
2023-05-03T00:25:47.260Z,1025.07
2023-05-03T00:26:47.910Z,1025.07
2023-05-03T00:27:47.914Z,1025.07
2023-05-03T00:28:47.908Z,1025.05
2023-05-03T00:29:47.898Z,1025.05
2023-05-03T00:30:47.230Z,1025.02
2023-05-03T00:31:47.224Z,1025.04
2023-05-03T00:32:47.937Z,1025.06
2023-05-03T00:33:47.863Z,1025.06
2023-05-03T00:34:47.850Z,1025.01
2023-05-03T00:35:47.836Z,1025.03
2023-05-03T00:36:47.805Z,1025.04
2023-05-03T00:37:47.143Z,1025.04
2023-05-03T00:38:47.800Z,1025.09
2023-05-03T00:39:47.790Z,1025.05
2023-05-03T00:40:47.779Z,1025.07
2023-05-03T00:41:47.111Z,1025.04
2023-05-03T00:42:47.115Z,1025.06
2023-05-03T00:43:47.753Z,1025.07
2023-05-03T00:44:47.743Z,1025.08
2023-05-03T00:45:47.731Z,1025.10
2023-05-03T00:46:47.728Z,1025.03
2023-05-03T00:47:47.742Z,1025.03
2023-05-03T00:48:47.022Z,1025.11
2023-05-03T00:49:47.000Z,1025.11
2023-05-03T00:50:46.982Z,1025.10
2023-05-03T00:51:47.647Z,1025.08
2023-05-03T00:52:47.651Z,1025.09
2023-05-03T00:53:47.894Z,1025.09
2023-05-03T00:54:46.934Z,1025.08
2023-05-03T00:55:47.627Z,1025.05
2023-05-03T00:56:51.534Z,1025.02
2023-05-03T00:57:47.902Z,1025.06
2023-05-03T00:58:46.938Z,1025.07
2023-05-03T00:59:46.913Z,1025.07
2023-05-03T01:00:46.898Z,1025.05
2023-05-03T01:01:46.934Z,1025.04
2023-05-03T01:02:47.632Z,1025.05
2023-05-03T01:03:47.719Z,1025.06
2023-05-03T01:04:46.857Z,1025.02
2023-05-03T01:05:46.842Z,1025.06
2023-05-03T01:06:46.919Z,1025.10
2023-05-03T01:07:46.812Z,1025.09
2023-05-03T01:08:47.486Z,1025.11
2023-05-03T01:09:46.800Z,1025.10
2023-05-03T01:10:46.784Z,1025.06
2023-05-03T01:11:48.252Z,1025.05
2023-05-03T01:12:46.734Z,1025.05
2023-05-03T01:13:47.435Z,1025.10
2023-05-03T01:14:47.427Z,1025.07
2023-05-03T01:15:47.423Z,1025.07
2023-05-03T01:16:47.377Z,1025.10
2023-05-03T01:17:46.763Z,1025.10
2023-05-03T01:18:47.397Z,1025.13
2023-05-03T01:19:47.386Z,1025.12
2023-05-03T01:20:47.373Z,1025.11
2023-05-03T01:21:47.351Z,1025.10
2023-05-03T01:22:46.650Z,1025.15
2023-05-03T01:23:46.644Z,1025.10
2023-05-03T01:24:46.644Z,1025.13
2023-05-03T01:25:46.642Z,1025.13
2023-05-03T01:26:47.294Z,1025.18
2023-05-03T01:27:47.296Z,1025.16
2023-05-03T01:28:47.299Z,1025.16
2023-05-03T01:29:46.599Z,1025.17
2023-05-03T01:30:47.254Z,1025.20
2023-05-03T01:31:47.288Z,1025.22
2023-05-03T01:32:47.279Z,1025.21
2023-05-03T01:33:47.242Z,1025.24
2023-05-03T01:34:47.210Z,1025.29
2023-05-03T01:35:47.202Z,1025.23
2023-05-03T01:36:47.175Z,1025.28
2023-05-03T01:37:47.173Z,1025.29
2023-05-03T01:38:47.163Z,1025.29
2023-05-03T01:39:47.153Z,1025.24
2023-05-03T01:40:46.449Z,1025.25
2023-05-03T01:41:47.122Z,1025.22
2023-05-03T01:42:46.437Z,1025.19
2023-05-03T01:43:47.381Z,1025.20
2023-05-03T01:44:47.100Z,1025.21
2023-05-03T01:45:46.451Z,1025.21
2023-05-03T01:46:47.071Z,1025.25
2023-05-03T01:47:47.364Z,1025.25
2023-05-03T01:48:47.067Z,1025.29
2023-05-03T01:49:47.056Z,1025.29
2023-05-03T01:50:47.160Z,1025.27
2023-05-03T01:51:47.012Z,1025.26
2023-05-03T01:52:47.022Z,1025.26
2023-05-03T01:53:47.010Z,1025.21
2023-05-03T01:54:47.277Z,1025.24
2023-05-03T01:55:46.283Z,1025.23
2023-05-03T01:56:47.224Z,1025.24
2023-05-03T01:57:46.259Z,1025.23
2023-05-03T01:58:46.269Z,1025.25
2023-05-03T01:59:47.206Z,1025.26
2023-05-03T02:00:47.220Z,1025.26
2023-05-03T02:01:48.187Z,1025.23
2023-05-03T02:02:46.253Z,1025.23
2023-05-03T02:03:46.228Z,1025.19
2023-05-03T02:04:46.258Z,1025.23
2023-05-03T02:05:46.878Z,1025.21
2023-05-03T02:06:47.002Z,1025.22
2023-05-03T02:07:46.854Z,1025.24
2023-05-03T02:08:46.850Z,1025.20
2023-05-03T02:09:46.840Z,1025.20
2023-05-03T02:10:46.823Z,1025.25
2023-05-03T02:11:46.806Z,1025.27
2023-05-03T02:12:47.066Z,1025.32
2023-05-03T02:13:46.807Z,1025.32
2023-05-03T02:14:47.041Z,1025.36
2023-05-03T02:15:46.774Z,1025.35
2023-05-03T02:16:47.074Z,1025.36
2023-05-03T02:17:46.797Z,1025.29
2023-05-03T02:18:47.003Z,1025.34
2023-05-03T02:19:46.991Z,1025.35
2023-05-03T02:20:46.993Z,1025.40
2023-05-03T02:21:46.998Z,1025.35
2023-05-03T02:22:46.958Z,1025.37
2023-05-03T02:23:46.953Z,1025.36
2023-05-03T02:24:46.942Z,1025.38
2023-05-03T02:25:46.946Z,1025.39
2023-05-03T02:26:46.924Z,1025.37
2023-05-03T02:27:46.643Z,1025.37
2023-05-03T02:28:46.640Z,1025.39
2023-05-03T02:29:46.628Z,1025.40
2023-05-03T02:30:46.937Z,1025.43
2023-05-03T02:31:46.863Z,1025.40
2023-05-03T02:32:46.953Z,1025.44
2023-05-03T02:33:46.590Z,1025.44
2023-05-03T02:34:46.571Z,1025.48
2023-05-03T02:35:46.546Z,1025.41
2023-05-03T02:36:46.812Z,1025.44
2023-05-03T02:37:46.791Z,1025.51
2023-05-03T02:38:46.799Z,1025.44
2023-05-03T02:39:46.513Z,1025.48
2023-05-03T02:40:46.496Z,1025.52
2023-05-03T02:41:46.498Z,1025.52
2023-05-03T02:42:46.776Z,1025.50
2023-05-03T02:43:46.716Z,1025.51
2023-05-03T02:44:46.510Z,1025.51
2023-05-03T02:45:46.440Z,1025.56
2023-05-03T02:46:46.531Z,1025.55
2023-05-03T02:47:46.729Z,1025.62
2023-05-03T02:48:46.693Z,1025.59
2023-05-03T02:49:46.408Z,1025.61
2023-05-03T02:50:46.672Z,1025.60
2023-05-03T02:51:46.674Z,1025.61
2023-05-03T02:52:46.642Z,1025.60
2023-05-03T02:53:46.649Z,1025.57
2023-05-03T02:54:46.631Z,1025.51
2023-05-03T02:55:46.617Z,1025.55
2023-05-03T02:56:46.615Z,1025.48
2023-05-03T02:57:46.587Z,1025.48
2023-05-03T02:58:46.583Z,1025.43
2023-05-03T02:59:46.562Z,1025.44
2023-05-03T03:00:46.566Z,1025.40
2023-05-03T03:01:46.635Z,1025.34
2023-05-03T03:02:46.652Z,1025.38
2023-05-03T03:03:46.585Z,1025.37
2023-05-03T03:04:46.511Z,1025.34
2023-05-03T03:05:46.528Z,1025.35
2023-05-03T03:06:46.615Z,1025.29
2023-05-03T03:07:46.497Z,1025.30
2023-05-03T03:08:46.477Z,1025.32
2023-05-03T03:09:46.200Z,1025.30
2023-05-03T03:10:46.464Z,1025.26
2023-05-03T03:11:46.162Z,1025.28
2023-05-03T03:12:46.434Z,1025.32
2023-05-03T03:13:46.412Z,1025.24
2023-05-03T03:14:46.149Z,1025.20
2023-05-03T03:15:46.467Z,1025.19
2023-05-03T03:16:45.458Z,1025.19
2023-05-03T03:17:46.185Z,1025.16
2023-05-03T03:18:46.106Z,1025.24
2023-05-03T03:19:46.104Z,1025.17
2023-05-03T03:20:46.087Z,1025.18
2023-05-03T03:21:46.055Z,1025.13
2023-05-03T03:22:46.326Z,1025.16
2023-05-03T03:23:46.315Z,1025.18
2023-05-03T03:24:46.299Z,1025.14
2023-05-03T03:25:46.298Z,1025.16
2023-05-03T03:26:46.288Z,1025.16
2023-05-03T03:27:46.013Z,1025.15
2023-05-03T03:28:46.011Z,1025.14
2023-05-03T03:29:46.248Z,1025.14
2023-05-03T03:30:46.244Z,1025.15
2023-05-03T03:31:45.985Z,1025.15
2023-05-03T03:32:45.302Z,1025.14
2023-05-03T03:33:45.945Z,1025.08
2023-05-03T03:34:45.940Z,1025.14
2023-05-03T03:35:45.925Z,1025.11
2023-05-03T03:36:45.894Z,1025.06
2023-05-03T03:37:45.909Z,1025.04
2023-05-03T03:38:46.157Z,1025.05
2023-05-03T03:39:45.883Z,1025.06
2023-05-03T03:40:45.877Z,1025.04
2023-05-03T03:41:46.133Z,1025.14
2023-05-03T03:42:46.098Z,1025.10
2023-05-03T03:43:45.843Z,1025.10
2023-05-03T03:44:45.827Z,1025.12
2023-05-03T03:45:46.076Z,1025.11
2023-05-03T03:46:45.810Z,1025.15
2023-05-03T03:47:46.147Z,1025.18
2023-05-03T03:48:45.783Z,1025.14
2023-05-03T03:49:45.087Z,1025.17
2023-05-03T03:50:46.014Z,1025.15
2023-05-03T03:51:46.025Z,1025.13
2023-05-03T03:52:45.761Z,1025.07
2023-05-03T03:53:45.995Z,1025.11
2023-05-03T03:54:45.994Z,1025.08
2023-05-03T03:55:45.714Z,1025.13
2023-05-03T03:56:45.994Z,1025.09
2023-05-03T03:57:45.956Z,1025.09
2023-05-03T03:58:45.944Z,1025.09
2023-05-03T03:59:45.935Z,1025.12
2023-05-03T04:00:45.935Z,1025.16
2023-05-03T04:01:45.965Z,1025.11
2023-05-03T04:02:47.307Z,1025.15
2023-05-03T04:03:46.022Z,1025.13
2023-05-03T04:04:45.618Z,1025.14
2023-05-03T04:05:45.874Z,1025.13
2023-05-03T04:06:45.944Z,1025.15
2023-05-03T04:07:45.835Z,1025.08
2023-05-03T04:08:45.821Z,1025.15
2023-05-03T04:09:45.815Z,1025.08
2023-05-03T04:10:45.798Z,1025.09
2023-05-03T04:11:45.816Z,1025.07
2023-05-03T04:12:45.546Z,1025.02
2023-05-03T04:13:45.519Z,1025.01
2023-05-03T04:14:45.505Z,1025.01
2023-05-03T04:15:45.497Z,1024.99
2023-05-03T04:16:45.483Z,1024.94
2023-05-03T04:17:45.535Z,1024.97
2023-05-03T04:18:44.786Z,1024.90
2023-05-03T04:19:44.778Z,1024.91
2023-05-03T04:20:44.760Z,1024.94
2023-05-03T04:21:45.411Z,1024.89
2023-05-03T04:22:45.423Z,1024.93
2023-05-03T04:23:45.417Z,1024.91
2023-05-03T04:24:44.721Z,1024.93
2023-05-03T04:25:44.710Z,1024.94
2023-05-03T04:26:44.725Z,1024.89
2023-05-03T04:27:44.691Z,1024.96
2023-05-03T04:28:44.690Z,1024.98
2023-05-03T04:29:45.360Z,1024.98
2023-05-03T04:30:44.761Z,1025.04
2023-05-03T04:31:44.666Z,1025.09
2023-05-03T04:32:44.759Z,1025.05
2023-05-03T04:33:45.305Z,1025.06
2023-05-03T04:34:45.170Z,1025.15
2023-05-03T04:35:45.284Z,1025.15
2023-05-03T04:36:45.254Z,1025.20
2023-05-03T04:37:44.585Z,1025.18
2023-05-03T04:38:45.258Z,1025.25
2023-05-03T04:39:45.247Z,1025.24
2023-05-03T04:40:44.603Z,1025.30
2023-05-03T04:41:45.210Z,1025.32
2023-05-03T04:42:45.214Z,1025.33
2023-05-03T04:43:45.203Z,1025.39
2023-05-03T04:44:44.502Z,1025.33
2023-05-03T04:45:45.942Z,1025.35
2023-05-03T04:46:44.576Z,1025.36
2023-05-03T04:47:45.208Z,1025.37
2023-05-03T04:48:45.151Z,1025.41
2023-05-03T04:49:45.137Z,1025.41
2023-05-03T04:50:45.122Z,1025.49
2023-05-03T04:51:45.101Z,1025.46
2023-05-03T04:52:45.108Z,1025.51
2023-05-03T04:53:45.852Z,1025.57
2023-05-03T04:54:45.080Z,1025.59
2023-05-03T04:55:45.075Z,1025.61
2023-05-03T04:56:45.045Z,1025.67
2023-05-03T04:57:45.050Z,1025.67
2023-05-03T04:58:46.296Z,1025.75
2023-05-03T04:59:44.332Z,1025.75
2023-05-03T05:00:44.337Z,1025.74
2023-05-03T05:01:44.420Z,1025.77
2023-05-03T05:02:45.119Z,1025.76
2023-05-03T05:03:44.438Z,1025.81
2023-05-03T05:04:45.002Z,1025.80
2023-05-03T05:05:44.293Z,1025.82
2023-05-03T05:06:44.331Z,1025.85
2023-05-03T05:07:44.250Z,1025.87
2023-05-03T05:08:44.930Z,1025.83
2023-05-03T05:09:44.919Z,1025.90
2023-05-03T05:10:44.909Z,1025.91
2023-05-03T05:11:44.229Z,1025.92
2023-05-03T05:12:44.891Z,1025.95
2023-05-03T05:13:44.221Z,1025.95
2023-05-03T05:14:44.868Z,1025.94
2023-05-03T05:15:44.848Z,1025.95
2023-05-03T05:16:44.196Z,1025.95
2023-05-03T05:17:44.344Z,1026.01
2023-05-03T05:18:44.128Z,1026.01
2023-05-03T05:19:44.820Z,1026.05
2023-05-03T05:20:44.798Z,1026.03
2023-05-03T05:21:44.789Z,1026.04
2023-05-03T05:22:44.091Z,1026.08
2023-05-03T05:23:44.110Z,1026.09
2023-05-03T05:24:44.756Z,1026.06
2023-05-03T05:25:44.728Z,1026.10
2023-05-03T05:26:44.741Z,1026.13
2023-05-03T05:27:44.728Z,1026.17
2023-05-03T05:28:44.029Z,1026.17
2023-05-03T05:29:44.012Z,1026.18
2023-05-03T05:30:44.671Z,1026.27
2023-05-03T05:31:44.746Z,1026.24
2023-05-03T05:32:44.065Z,1026.25
2023-05-03T05:33:43.963Z,1026.23
2023-05-03T05:34:45.317Z,1026.23
2023-05-03T05:35:43.955Z,1026.25
2023-05-03T05:36:44.631Z,1026.30
2023-05-03T05:37:44.618Z,1026.32
2023-05-03T05:38:44.608Z,1026.35
2023-05-03T05:39:44.593Z,1026.35
2023-05-03T05:40:44.570Z,1026.39
2023-05-03T05:41:44.577Z,1026.41
2023-05-03T05:42:44.566Z,1026.44
2023-05-03T05:43:44.549Z,1026.42
2023-05-03T05:44:44.545Z,1026.42
2023-05-03T05:45:44.510Z,1026.41
2023-05-03T05:46:44.585Z,1026.38
2023-05-03T05:47:44.515Z,1026.38
2023-05-03T05:48:44.490Z,1026.36
2023-05-03T05:49:44.484Z,1026.31
2023-05-03T05:50:44.459Z,1026.36
2023-05-03T05:51:43.775Z,1026.36
2023-05-03T05:52:43.768Z,1026.39
2023-05-03T05:53:44.441Z,1026.32
2023-05-03T05:54:45.672Z,1026.33
2023-05-03T05:55:44.420Z,1026.36
2023-05-03T05:56:44.413Z,1026.38
2023-05-03T05:57:44.404Z,1026.42
2023-05-03T05:58:44.392Z,1026.44
2023-05-03T05:59:44.384Z,1026.45
2023-05-03T06:00:44.352Z,1026.46
2023-05-03T06:01:44.384Z,1026.42
2023-05-03T06:02:44.442Z,1026.44
2023-05-03T06:03:43.650Z,1026.49
2023-05-03T06:04:44.336Z,1026.48
2023-05-03T06:05:44.424Z,1026.51
2023-05-03T06:06:44.350Z,1026.54
2023-05-03T06:07:43.613Z,1026.57
2023-05-03T06:08:44.286Z,1026.61
2023-05-03T06:09:43.586Z,1026.59
2023-05-03T06:10:43.599Z,1026.66
2023-05-03T06:11:43.568Z,1026.60
2023-05-03T06:12:44.246Z,1026.66
2023-05-03T06:13:44.245Z,1026.62
2023-05-03T06:14:55.298Z,1026.66
2023-05-03T06:15:44.536Z,1026.67
2023-05-03T06:16:44.217Z,1026.71
2023-05-03T06:17:44.223Z,1026.69
2023-05-03T06:18:44.185Z,1026.73
2023-05-03T06:19:45.147Z,1026.75
2023-05-03T06:20:44.140Z,1026.79
2023-05-03T06:21:43.459Z,1026.88
2023-05-03T06:22:45.414Z,1026.87
2023-05-03T06:23:44.131Z,1026.86
2023-05-03T06:24:44.120Z,1026.79
2023-05-03T06:25:44.083Z,1026.79
2023-05-03T06:26:44.106Z,1026.82
2023-05-03T06:27:43.386Z,1026.79
2023-05-03T06:28:44.084Z,1026.81
2023-05-03T06:29:43.385Z,1026.78
2023-05-03T06:30:44.081Z,1026.77
2023-05-03T06:31:43.480Z,1026.73
2023-05-03T06:32:44.084Z,1026.70
2023-05-03T06:33:43.331Z,1026.74
2023-05-03T06:34:43.326Z,1026.70
2023-05-03T06:35:43.986Z,1026.75
2023-05-03T06:36:44.000Z,1026.75
2023-05-03T06:37:43.286Z,1026.76
2023-05-03T06:38:43.274Z,1026.86
2023-05-03T06:39:43.969Z,1026.96
2023-05-03T06:40:43.926Z,1026.99
2023-05-03T06:41:43.929Z,1026.98
2023-05-03T06:42:43.929Z,1027.00
2023-05-03T06:43:43.237Z,1027.02
2023-05-03T06:44:43.289Z,1026.98
2023-05-03T06:45:43.213Z,1026.99
2023-05-03T06:46:43.349Z,1027.05
2023-05-03T06:47:43.866Z,1027.10
2023-05-03T06:48:45.140Z,1027.15
2023-05-03T06:49:43.844Z,1027.15
2023-05-03T06:50:43.162Z,1027.22
2023-05-03T06:51:43.141Z,1027.24
2023-05-03T06:52:44.053Z,1027.25
2023-05-03T06:53:43.800Z,1027.23
2023-05-03T06:54:43.791Z,1027.14
2023-05-03T06:55:45.066Z,1027.12
2023-05-03T06:56:43.769Z,1027.24
2023-05-03T06:57:43.758Z,1027.22
2023-05-03T06:58:43.749Z,1027.19
2023-05-03T06:59:43.741Z,1027.16
2023-05-03T07:00:43.717Z,1027.04
2023-05-03T07:01:45.224Z,1027.01
2023-05-03T07:02:45.071Z,1027.04
2023-05-03T07:03:44.101Z,1027.02
2023-05-03T07:04:43.022Z,1027.03
2023-05-03T07:05:43.671Z,1027.04
2023-05-03T07:06:55.460Z,1026.92
2023-05-03T07:07:44.646Z,1026.87
2023-05-03T07:08:43.642Z,1026.85
2023-05-03T07:09:44.897Z,1026.85
2023-05-03T07:10:43.614Z,1026.86
2023-05-03T07:11:43.606Z,1026.83
2023-05-03T07:12:43.594Z,1026.78
2023-05-03T07:13:42.909Z,1026.79
2023-05-03T07:14:42.904Z,1026.75
2023-05-03T07:15:43.814Z,1026.73
2023-05-03T07:16:43.862Z,1026.67
2023-05-03T07:17:43.586Z,1026.71
2023-05-03T07:18:43.773Z,1026.71
2023-05-03T07:19:43.510Z,1026.72
2023-05-03T07:20:43.742Z,1026.67
2023-05-03T07:21:43.738Z,1026.67
2023-05-03T07:22:43.487Z,1026.62
2023-05-03T07:23:43.476Z,1026.40
2023-05-03T07:24:43.497Z,1026.46
2023-05-03T07:25:42.776Z,1026.64
2023-05-03T07:26:44.509Z,1026.51
2023-05-03T07:27:43.671Z,1026.50
2023-05-03T07:28:42.713Z,1026.54
2023-05-03T07:29:42.749Z,1026.44
2023-05-03T07:30:43.392Z,1026.43
2023-05-03T07:31:42.704Z,1026.40
2023-05-03T07:32:43.446Z,1026.37
2023-05-03T07:33:43.519Z,1026.39
2023-05-03T07:34:43.333Z,1026.37
2023-05-03T07:35:42.645Z,1026.39
2023-05-03T07:36:43.332Z,1026.35
2023-05-03T07:37:43.338Z,1026.38
2023-05-03T07:38:43.311Z,1026.36
2023-05-03T07:39:43.576Z,1026.35
2023-05-03T07:40:43.536Z,1026.39
2023-05-03T07:41:43.274Z,1026.30
2023-05-03T07:42:43.272Z,1026.34
2023-05-03T07:43:43.502Z,1026.32
2023-05-03T07:44:43.232Z,1026.30
2023-05-03T07:45:43.540Z,1026.29
2023-05-03T07:46:43.422Z,1026.22
2023-05-03T07:47:42.546Z,1026.24
2023-05-03T07:48:44.451Z,1026.27
2023-05-03T07:49:43.176Z,1026.12
2023-05-03T07:50:43.409Z,1026.21
2023-05-03T07:51:42.481Z,1026.06
2023-05-03T07:52:43.457Z,1026.03
2023-05-03T07:53:43.390Z,1026.15
2023-05-03T07:54:43.389Z,1026.14
2023-05-03T07:55:43.125Z,1026.13
2023-05-03T07:56:43.366Z,1026.16
2023-05-03T07:57:43.378Z,1026.14
2023-05-03T07:58:45.026Z,1026.11
2023-05-03T07:59:43.074Z,1026.09
2023-05-03T08:00:43.093Z,1026.09
2023-05-03T08:01:43.070Z,1026.11
2023-05-03T08:02:43.165Z,1026.07
2023-05-03T08:03:43.632Z,1026.09
2023-05-03T08:04:43.579Z,1026.08
2023-05-03T08:05:43.085Z,1026.03
2023-05-03T08:06:43.076Z,1026.08
2023-05-03T08:07:42.998Z,1026.09
2023-05-03T08:08:44.245Z,1026.11
2023-05-03T08:09:43.229Z,1026.12
2023-05-03T08:10:42.989Z,1026.12
2023-05-03T08:11:44.308Z,1026.10
2023-05-03T08:12:42.958Z,1026.10
2023-05-03T08:13:42.937Z,1026.04
2023-05-03T08:14:42.907Z,1026.08
2023-05-03T08:15:43.199Z,1026.08
2023-05-03T08:16:42.914Z,1026.00
2023-05-03T08:17:43.377Z,1026.06
2023-05-03T08:18:43.128Z,1026.03
2023-05-03T08:19:42.865Z,1026.04
2023-05-03T08:20:43.117Z,1026.02
2023-05-03T08:21:43.101Z,1026.00
2023-05-03T08:22:43.083Z,1026.07
2023-05-03T08:23:42.832Z,1026.03
2023-05-03T08:24:42.817Z,1026.05
2023-05-03T08:25:42.823Z,1026.05
2023-05-03T08:26:42.804Z,1026.04
2023-05-03T08:27:43.073Z,1026.12
2023-05-03T08:28:42.143Z,1026.11
2023-05-03T08:29:42.101Z,1026.10
2023-05-03T08:30:42.091Z,1026.09
2023-05-03T08:31:43.015Z,1026.09
2023-05-03T08:32:42.996Z,1026.09
2023-05-03T08:33:42.726Z,1026.08
2023-05-03T08:34:42.969Z,1026.08
2023-05-03T08:35:42.704Z,1026.12
2023-05-03T08:36:42.698Z,1026.08
2023-05-03T08:37:42.954Z,1026.06
2023-05-03T08:38:42.924Z,1026.19
2023-05-03T08:39:42.659Z,1026.12
2023-05-03T08:40:42.650Z,1026.19
2023-05-03T08:41:42.645Z,1026.23
2023-05-03T08:42:42.883Z,1026.16
2023-05-03T08:43:43.892Z,1026.20
2023-05-03T08:44:42.592Z,1026.23
2023-05-03T08:45:42.604Z,1026.18
2023-05-03T08:46:42.636Z,1026.17
2023-05-03T08:47:42.590Z,1026.19
2023-05-03T08:48:42.801Z,1026.19
2023-05-03T08:49:42.536Z,1026.17
2023-05-03T08:50:42.796Z,1026.17
2023-05-03T08:51:42.767Z,1026.13
2023-05-03T08:52:41.821Z,1026.07
2023-05-03T08:53:42.506Z,1026.08
2023-05-03T08:54:42.478Z,1026.03
2023-05-03T08:55:42.487Z,1026.00
2023-05-03T08:56:42.478Z,1025.95
2023-05-03T08:57:41.780Z,1025.95
2023-05-03T08:58:41.774Z,1025.96
2023-05-03T08:59:42.424Z,1025.97
2023-05-03T09:00:42.692Z,1025.95
2023-05-03T09:01:42.752Z,1025.85
2023-05-03T09:02:42.929Z,1025.89
2023-05-03T09:03:41.801Z,1025.86
2023-05-03T09:04:42.377Z,1025.88
2023-05-03T09:05:42.642Z,1025.81
2023-05-03T09:06:42.706Z,1025.87
2023-05-03T09:07:42.607Z,1025.88
2023-05-03T09:08:42.339Z,1025.79
2023-05-03T09:09:43.424Z,1025.81
2023-05-03T09:10:42.328Z,1025.88
2023-05-03T09:11:42.563Z,1025.81
2023-05-03T09:12:41.608Z,1025.82
2023-05-03T09:13:42.560Z,1025.85
2023-05-03T09:14:42.267Z,1025.78
2023-05-03T09:15:42.277Z,1025.83
2023-05-03T09:16:42.321Z,1025.82
2023-05-03T09:17:41.634Z,1025.81
2023-05-03T09:18:41.541Z,1025.78
2023-05-03T09:19:42.498Z,1025.83
2023-05-03T09:20:42.484Z,1025.83
2023-05-03T09:21:42.209Z,1025.79
2023-05-03T09:22:42.197Z,1025.83
2023-05-03T09:23:42.468Z,1025.81
2023-05-03T09:24:42.461Z,1025.86
2023-05-03T09:25:42.428Z,1025.79
2023-05-03T09:26:42.411Z,1025.81
2023-05-03T09:27:42.154Z,1025.77
2023-05-03T09:28:42.128Z,1025.74
2023-05-03T09:29:42.103Z,1025.74
2023-05-03T09:30:42.369Z,1025.74
2023-05-03T09:31:42.397Z,1025.70
2023-05-03T09:32:42.385Z,1025.67
2023-05-03T09:33:42.320Z,1025.70
2023-05-03T09:34:42.330Z,1025.81
2023-05-03T09:35:41.346Z,1025.76
2023-05-03T09:36:42.908Z,1025.75
2023-05-03T09:37:42.033Z,1025.70
2023-05-03T09:38:42.023Z,1025.74
2023-05-03T09:39:41.336Z,1025.74
2023-05-03T09:40:41.992Z,1025.69
2023-05-03T09:41:41.980Z,1025.73
2023-05-03T09:42:42.258Z,1025.74
2023-05-03T09:43:41.964Z,1025.74
2023-05-03T09:44:41.945Z,1025.75
2023-05-03T09:45:41.294Z,1025.72
2023-05-03T09:46:41.247Z,1025.68
2023-05-03T09:47:41.953Z,1025.69
2023-05-03T09:48:41.908Z,1025.74
2023-05-03T09:49:41.879Z,1025.73
2023-05-03T09:50:41.903Z,1025.72
2023-05-03T09:51:41.876Z,1025.72
2023-05-03T09:52:41.866Z,1025.75
2023-05-03T09:53:41.878Z,1025.75
2023-05-03T09:54:41.830Z,1025.69
2023-05-03T09:55:41.845Z,1025.70
2023-05-03T09:56:41.143Z,1025.75
2023-05-03T09:57:41.140Z,1025.71
2023-05-03T09:58:41.127Z,1025.72
2023-05-03T09:59:41.780Z,1025.68
2023-05-03T10:00:41.791Z,1025.69
2023-05-03T10:01:41.155Z,1025.65
2023-05-03T10:02:41.107Z,1025.64
2023-05-03T10:03:41.777Z,1025.66
2023-05-03T10:04:41.727Z,1025.57
2023-05-03T10:05:41.730Z,1025.59
2023-05-03T10:06:41.078Z,1025.57
2023-05-03T10:07:41.028Z,1025.58
2023-05-03T10:08:41.029Z,1025.55
2023-05-03T10:09:41.020Z,1025.57
2023-05-03T10:10:41.681Z,1025.56
2023-05-03T10:11:40.987Z,1025.56
2023-05-03T10:12:41.653Z,1025.55
2023-05-03T10:13:40.963Z,1025.52
2023-05-03T10:14:40.965Z,1025.50
2023-05-03T10:15:40.954Z,1025.57
2023-05-03T10:16:40.928Z,1025.55
2023-05-03T10:17:46.936Z,1025.56
2023-05-03T10:18:42.586Z,1025.57
2023-05-03T10:19:41.561Z,1025.49
2023-05-03T10:20:41.572Z,1025.43
2023-05-03T10:21:41.556Z,1025.42
2023-05-03T10:22:41.546Z,1025.36
2023-05-03T10:23:41.517Z,1025.45
2023-05-03T10:24:40.846Z,1025.38
2023-05-03T10:25:40.853Z,1025.42
2023-05-03T10:26:41.502Z,1025.43
2023-05-03T10:27:41.494Z,1025.40
2023-05-03T10:28:41.469Z,1025.43
2023-05-03T10:29:41.476Z,1025.41
2023-05-03T10:30:40.798Z,1025.45
2023-05-03T10:31:40.808Z,1025.46
2023-05-03T10:32:41.470Z,1025.43
2023-05-03T10:33:41.423Z,1025.38
2023-05-03T10:34:41.413Z,1025.37
2023-05-03T10:35:41.426Z,1025.34
2023-05-03T10:36:49.527Z,1025.28
2023-05-03T10:37:43.132Z,1025.27
2023-05-03T10:38:41.377Z,1025.25
2023-05-03T10:39:41.364Z,1025.28
2023-05-03T10:40:40.659Z,1025.27
2023-05-03T10:41:41.350Z,1025.20
2023-05-03T10:42:40.643Z,1025.19
2023-05-03T10:43:40.652Z,1025.20
2023-05-03T10:44:41.326Z,1025.26
2023-05-03T10:45:41.289Z,1025.19
2023-05-03T10:46:41.401Z,1025.15
2023-05-03T10:47:41.308Z,1025.20
2023-05-03T10:48:41.253Z,1025.19
2023-05-03T10:49:41.259Z,1025.19
2023-05-03T10:50:41.268Z,1025.06
2023-05-03T10:51:41.233Z,1025.08
2023-05-03T10:52:41.221Z,1025.08
2023-05-03T10:53:40.550Z,1025.08
2023-05-03T10:54:40.517Z,1025.11
2023-05-03T10:55:40.509Z,1025.05
2023-05-03T10:56:40.502Z,1025.20
2023-05-03T10:57:41.166Z,1025.11
2023-05-03T10:58:41.140Z,1025.06
2023-05-03T10:59:41.150Z,1025.04
2023-05-03T11:00:40.473Z,1025.11
2023-05-03T11:01:41.155Z,1025.16
2023-05-03T11:02:41.146Z,1025.11
2023-05-03T11:03:40.412Z,1025.11
2023-05-03T11:04:41.187Z,1025.16
2023-05-03T11:05:41.102Z,1025.10
2023-05-03T11:06:40.418Z,1025.09
2023-05-03T11:07:41.084Z,1025.11
2023-05-03T11:08:41.025Z,1025.06
2023-05-03T11:09:41.052Z,1025.04
2023-05-03T11:10:41.036Z,1025.08
2023-05-03T11:11:41.104Z,1025.07
2023-05-03T11:12:40.312Z,1025.10
2023-05-03T11:13:41.133Z,1025.05
2023-05-03T11:14:40.986Z,1025.07
2023-05-03T11:15:40.976Z,1025.03
2023-05-03T11:16:41.030Z,1025.03
2023-05-03T11:17:40.286Z,1025.02
2023-05-03T11:18:40.921Z,1025.02
2023-05-03T11:19:40.947Z,1024.99
2023-05-03T11:20:41.182Z,1024.94
2023-05-03T11:21:41.162Z,1024.99
2023-05-03T11:22:40.897Z,1024.92
2023-05-03T11:23:40.194Z,1024.97
2023-05-03T11:24:40.201Z,1024.90
2023-05-03T11:25:40.859Z,1024.87
2023-05-03T11:26:40.854Z,1024.93
2023-05-03T11:27:41.108Z,1024.91
2023-05-03T11:28:40.814Z,1024.89
2023-05-03T11:29:40.824Z,1024.97
2023-05-03T11:30:40.807Z,1024.94
2023-05-03T11:31:40.827Z,1024.88
2023-05-03T11:32:40.824Z,1024.87
2023-05-03T11:33:40.759Z,1024.93
2023-05-03T11:34:40.094Z,1024.93
2023-05-03T11:35:40.073Z,1024.99
2023-05-03T11:36:40.756Z,1024.96
2023-05-03T11:37:40.740Z,1024.98
2023-05-03T11:38:40.708Z,1024.97
2023-05-03T11:39:40.719Z,1025.01
2023-05-03T11:40:40.702Z,1024.96
2023-05-03T11:41:40.027Z,1024.96
2023-05-03T11:42:40.968Z,1024.98
2023-05-03T11:43:40.666Z,1024.98
2023-05-03T11:44:40.653Z,1024.93
2023-05-03T11:45:40.691Z,1024.90
2023-05-03T11:46:40.694Z,1024.90
2023-05-03T11:47:40.685Z,1024.91
2023-05-03T11:48:39.950Z,1024.85
2023-05-03T11:49:40.627Z,1024.86
2023-05-03T11:50:39.885Z,1024.84
2023-05-03T11:51:40.578Z,1024.85
2023-05-03T11:52:40.595Z,1024.86
2023-05-03T11:53:39.898Z,1024.88
2023-05-03T11:54:40.552Z,1024.85
2023-05-03T11:55:39.858Z,1024.83
2023-05-03T11:56:40.546Z,1024.79
2023-05-03T11:57:40.527Z,1024.83
2023-05-03T11:58:39.839Z,1024.84
2023-05-03T11:59:40.827Z,1024.82
2023-05-03T12:00:39.817Z,1024.79
2023-05-03T12:01:39.821Z,1024.83
2023-05-03T12:02:40.745Z,1024.82
2023-05-03T12:03:40.849Z,1024.82
2023-05-03T12:04:39.951Z,1024.80
2023-05-03T12:05:41.086Z,1024.76